createdAt,value
2023-01-01T00:02:10.367Z,99.40
2023-01-01T00:06:13.100Z,99.10
2023-01-01T00:10:30.275Z,98.90
2023-01-01T00:14:31.861Z,98.60
2023-01-01T00:18:33.567Z,98.30
2023-01-01T00:22:53.793Z,98.40
2023-01-01T00:26:56.571Z,98.80
2023-01-01T00:30:58.130Z,98.50
2023-01-01T00:34:59.682Z,98.70
2023-01-01T00:39:02.214Z,99.20
2023-01-01T00:43:03.757Z,99.10
2023-01-01T00:47:05.838Z,98.50
2023-01-01T00:51:07.773Z,98.50
2023-01-01T00:55:09.812Z,98.30
2023-01-01T00:59:11.378Z,98.30
2023-01-01T01:03:27.843Z,98.20
2023-01-01T01:07:37.469Z,97.90
2023-01-01T01:11:39.451Z,98.00
2023-01-01T01:15:41.281Z,97.80
2023-01-01T01:19:42.867Z,97.90
2023-01-01T01:23:44.411Z,97.40
2023-01-01T01:27:45.955Z,97.40
2023-01-01T01:31:47.494Z,97.10
2023-01-01T01:35:52.240Z,97.60
2023-01-01T01:39:54.374Z,97.40
2023-01-01T01:44:04.125Z,96.90
2023-01-01T01:48:05.689Z,96.80
2023-01-01T01:52:07.340Z,97.10
2023-01-01T01:56:11.434Z,97.20
2023-01-01T02:00:13.446Z,97.50
2023-01-01T02:04:15.827Z,97.60
2023-01-01T02:08:17.839Z,97.20
2023-01-01T02:12:19.443Z,97.40
2023-01-01T02:16:29.720Z,97.80
2023-01-01T02:20:39.800Z,97.10
2023-01-01T02:24:41.558Z,97.30
2023-01-01T02:28:48.565Z,97.00
2023-01-01T02:32:52.013Z,97.30
2023-01-01T02:36:54.989Z,97.50
2023-01-01T02:41:02.322Z,97.50
2023-01-01T02:45:05.472Z,97.60
2023-01-01T02:49:10.589Z,97.80
2023-01-01T02:53:23.884Z,98.30
2023-01-01T02:57:36.509Z,97.90
2023-01-01T03:01:46.919Z,98.10
2023-01-01T03:06:10.355Z,98.20
2023-01-01T03:10:15.459Z,98.20
2023-01-01T03:14:21.258Z,98.30
2023-01-01T03:18:31.894Z,98.40
2023-01-01T03:22:35.331Z,98.30
2023-01-01T03:26:38.103Z,98.80
2023-01-01T03:30:40.420Z,99.20
2023-01-01T03:34:45.359Z,98.70
2023-01-01T03:38:55.941Z,98.90
2023-01-01T03:43:08.615Z,99.00
2023-01-01T03:47:10.275Z,99.10
2023-01-01T03:51:17.845Z,99.30
2023-01-01T03:55:28.421Z,99.80
2023-01-01T03:59:34.952Z,99.70
2023-01-01T04:03:37.427Z,99.90
2023-01-01T04:07:39.188Z,99.90
2023-01-01T04:12:04.123Z,99.90
2023-01-01T04:16:06.055Z,99.90
2023-01-01T04:20:07.904Z,99.90
2023-01-01T04:24:10.390Z,99.90
2023-01-01T04:28:12.316Z,99.90
2023-01-01T04:32:14.025Z,99.90
2023-01-01T04:36:15.637Z,99.90
2023-01-01T04:40:17.307Z,99.90
2023-01-01T04:44:18.870Z,99.90
2023-01-01T04:48:20.385Z,99.90
2023-01-01T04:52:22.277Z,99.90
2023-01-01T04:56:23.855Z,99.90
2023-01-01T05:00:25.798Z,99.90
2023-01-01T05:04:27.495Z,99.90
2023-01-01T05:08:29.959Z,99.90
2023-01-01T05:12:31.542Z,99.90
2023-01-01T05:16:34.917Z,99.90
2023-01-01T05:20:36.568Z,99.90
2023-01-01T05:24:38.152Z,99.90
2023-01-01T05:28:39.849Z,99.90
2023-01-01T05:32:41.415Z,99.90
2023-01-01T05:36:43.015Z,99.90
2023-01-01T05:40:44.547Z,99.90
2023-01-01T05:44:46.097Z,99.90
2023-01-01T05:48:47.742Z,99.90
2023-01-01T05:52:49.291Z,99.90
2023-01-01T05:56:50.852Z,99.90
2023-01-01T06:00:52.444Z,99.90
2023-01-01T06:04:54.055Z,99.90
2023-01-01T06:09:03.575Z,99.90
2023-01-01T06:13:11.145Z,99.90
2023-01-01T06:17:14.627Z,99.90
2023-01-01T06:21:17.102Z,99.90
2023-01-01T06:25:18.626Z,99.90
2023-01-01T06:29:20.313Z,99.90
2023-01-01T06:33:21.873Z,99.90
2023-01-01T06:37:23.419Z,99.90
2023-01-01T06:41:26.024Z,99.90
2023-01-01T06:45:27.922Z,99.90
2023-01-01T06:49:29.532Z,99.90
2023-01-01T06:53:31.183Z,99.90
2023-01-01T06:57:34.527Z,99.90
2023-01-01T07:01:37.002Z,99.90
2023-01-01T07:05:38.606Z,99.90
2023-01-01T07:09:40.169Z,99.90
2023-01-01T07:13:42.032Z,99.90
2023-01-01T07:17:43.556Z,99.90
2023-01-01T07:21:48.243Z,99.90
2023-01-01T07:25:50.461Z,99.90
2023-01-01T07:29:52.342Z,99.90
2023-01-01T07:33:53.968Z,99.90
2023-01-01T07:37:55.641Z,99.90
2023-01-01T07:41:57.223Z,99.90
2023-01-01T07:45:59.536Z,99.90
2023-01-01T07:50:01.729Z,99.90
2023-01-01T07:54:07.174Z,99.90
2023-01-01T07:58:11.075Z,99.90
2023-01-01T08:02:13.109Z,99.90
2023-01-01T08:06:14.921Z,99.90
2023-01-01T08:10:22.975Z,99.90
2023-01-01T08:14:28.422Z,99.90
2023-01-01T08:18:30.060Z,99.90
2023-01-01T08:22:31.668Z,99.90
2023-01-01T08:26:34.659Z,99.90
2023-01-01T08:30:36.262Z,99.90
2023-01-01T08:34:37.803Z,99.90
2023-01-01T08:38:39.371Z,99.90
2023-01-01T08:42:40.952Z,99.90
2023-01-01T08:46:42.553Z,99.90
2023-01-01T08:50:44.149Z,99.90
2023-01-01T08:54:45.801Z,99.90
2023-01-01T08:58:47.655Z,99.90
2023-01-01T09:02:49.269Z,99.90
2023-01-01T09:06:51.117Z,99.90
2023-01-01T09:10:53.159Z,99.90
2023-01-01T09:14:54.781Z,99.90
2023-01-01T09:18:56.354Z,99.90
2023-01-01T09:23:04.036Z,99.90
2023-01-01T09:27:07.382Z,99.90
2023-01-01T09:31:09.056Z,99.90
2023-01-01T09:35:10.747Z,99.90
2023-01-01T09:39:15.872Z,99.90
2023-01-01T09:43:49.792Z,99.90
2023-01-01T09:48:03.940Z,99.90
2023-01-01T09:52:05.871Z,99.90
2023-01-01T09:56:13.288Z,99.90
2023-01-01T10:00:16.101Z,99.90
2023-01-01T10:04:36.415Z,99.90
2023-01-01T10:08:41.045Z,99.90
2023-01-01T10:13:02.828Z,99.90
2023-01-01T10:17:10.752Z,99.90
2023-01-01T10:21:17.560Z,99.90
2023-01-01T10:25:24.667Z,99.90
2023-01-01T10:29:41.368Z,99.90
2023-01-01T10:33:43.812Z,99.90
2023-01-01T10:37:45.754Z,99.90
2023-01-01T10:41:48.054Z,99.90
2023-01-01T10:46:33.762Z,99.90
2023-01-01T10:50:54.040Z,99.90
2023-01-01T10:54:55.629Z,99.90
2023-01-01T10:58:58.723Z,99.90
2023-01-01T11:03:19.509Z,99.90
2023-01-01T11:07:24.288Z,99.90
2023-01-01T11:11:29.043Z,99.90
2023-01-01T11:15:36.063Z,99.90
2023-01-01T11:19:39.548Z,99.90
2023-01-01T11:23:41.086Z,99.90
2023-01-01T11:27:42.661Z,99.90
2023-01-01T11:31:45.739Z,99.90
2023-01-01T11:35:49.877Z,99.90
2023-01-01T11:39:52.561Z,99.90
2023-01-01T11:43:54.122Z,99.90
2023-01-01T11:47:57.984Z,99.90
2023-01-01T11:51:59.869Z,99.90
2023-01-01T11:56:04.617Z,99.90
2023-01-01T12:00:07.096Z,99.90
2023-01-01T12:04:11.268Z,99.90
2023-01-01T12:08:15.641Z,99.90
2023-01-01T12:12:27.270Z,99.90
2023-01-01T12:16:28.830Z,99.90
2023-01-01T12:20:33.610Z,99.90
2023-01-01T12:24:35.551Z,99.90
2023-01-01T12:28:44.905Z,99.90
2023-01-01T12:33:08.215Z,99.90
2023-01-01T12:37:13.318Z,99.90
2023-01-01T12:41:21.173Z,99.90
2023-01-01T12:45:31.327Z,99.90
2023-01-01T12:49:36.769Z,99.90
2023-01-01T12:53:58.951Z,99.90
2023-01-01T12:58:06.195Z,99.90
2023-01-01T13:02:17.763Z,99.90
2023-01-01T13:06:28.170Z,99.90
2023-01-01T13:10:34.421Z,99.90
2023-01-01T13:14:40.133Z,99.90
2023-01-01T13:18:41.712Z,99.90
2023-01-01T13:22:44.235Z,99.90
2023-01-01T13:26:45.866Z,99.90
2023-01-01T13:30:48.103Z,99.90
2023-01-01T13:35:00.456Z,99.90
2023-01-01T13:39:02.127Z,99.90
2023-01-01T13:43:16.110Z,99.90
2023-01-01T13:47:29.986Z,99.90
2023-01-01T13:52:04.095Z,99.90
2023-01-01T13:56:11.165Z,99.90
2023-01-01T14:00:23.073Z,99.90
2023-01-01T14:04:40.961Z,99.90
2023-01-01T14:08:42.605Z,99.90
2023-01-01T14:12:44.280Z,99.90
2023-01-01T14:16:45.952Z,99.90
2023-01-01T14:20:48.719Z,99.90
2023-01-01T14:24:50.338Z,99.90
2023-01-01T14:28:56.060Z,99.90
2023-01-01T14:32:58.552Z,99.90
2023-01-01T14:37:01.434Z,99.90
2023-01-01T14:41:06.218Z,99.90
2023-01-01T14:45:14.714Z,99.90
2023-01-01T14:49:18.077Z,99.90
2023-01-01T14:53:21.424Z,99.90
2023-01-01T14:57:28.031Z,99.90
2023-01-01T15:01:29.749Z,99.90
2023-01-01T15:05:35.470Z,99.90
2023-01-01T15:09:37.711Z,99.90
2023-01-01T15:13:39.305Z,99.90
2023-01-01T15:17:45.141Z,99.90
2023-01-01T15:21:46.843Z,99.90
2023-01-01T15:25:48.477Z,99.90
2023-01-01T15:29:50.793Z,99.90
2023-01-01T15:33:52.613Z,99.90
2023-01-01T15:37:59.367Z,99.90
2023-01-01T15:42:01.225Z,99.90
2023-01-01T15:46:11.932Z,99.90
2023-01-01T15:50:21.065Z,99.90
2023-01-01T15:54:22.826Z,99.90
2023-01-01T15:58:38.008Z,99.90
2023-01-01T16:02:42.299Z,99.90
2023-01-01T16:06:48.641Z,99.90
2023-01-01T16:10:51.079Z,99.90
2023-01-01T16:14:52.749Z,99.90
2023-01-01T16:18:55.225Z,99.90
2023-01-01T16:22:56.811Z,99.90
2023-01-01T16:26:58.376Z,99.90
2023-01-01T16:31:00.014Z,99.90
2023-01-01T16:35:06.616Z,99.90
2023-01-01T16:39:11.810Z,99.90
2023-01-01T16:43:17.524Z,99.90
2023-01-01T16:47:19.053Z,99.90
2023-01-01T16:51:24.846Z,99.90
2023-01-01T16:55:26.377Z,99.90
2023-01-01T16:59:27.947Z,99.90
2023-01-01T17:03:29.515Z,99.90
2023-01-01T17:07:31.156Z,99.90
2023-01-01T17:11:33.880Z,99.90
2023-01-01T17:15:35.449Z,99.90
2023-01-01T17:19:37.161Z,99.90
2023-01-01T17:23:39.818Z,99.90
2023-01-01T17:27:41.585Z,99.90
2023-01-01T17:31:44.059Z,99.90
2023-01-01T17:35:45.601Z,99.90
2023-01-01T17:39:47.190Z,99.90
2023-01-01T17:43:50.225Z,99.90
2023-01-01T17:47:51.757Z,99.90
2023-01-01T17:51:53.404Z,99.90
2023-01-01T17:55:55.368Z,99.90
2023-01-01T17:59:58.992Z,99.90
2023-01-01T18:04:07.607Z,99.90
2023-01-01T18:08:09.227Z,99.90
2023-01-01T18:12:10.809Z,99.90
2023-01-01T18:16:12.623Z,99.90
2023-01-01T18:20:14.352Z,99.90
2023-01-01T18:24:16.106Z,99.90
2023-01-01T18:28:17.630Z,99.90
2023-01-01T18:32:19.246Z,99.90
2023-01-01T18:36:23.484Z,99.90
2023-01-01T18:40:27.171Z,99.90
2023-01-01T18:44:30.634Z,99.90
2023-01-01T18:48:32.277Z,99.90
2023-01-01T18:52:33.975Z,99.90
2023-01-01T18:56:35.509Z,99.90
2023-01-01T19:00:37.319Z,99.90
2023-01-01T19:04:38.946Z,99.90
2023-01-01T19:08:40.503Z,99.90
2023-01-01T19:12:42.115Z,99.90
2023-01-01T19:16:44.316Z,99.90
2023-01-01T19:20:46.353Z,99.90
2023-01-01T19:24:47.892Z,99.90
2023-01-01T19:28:52.222Z,99.90
2023-01-01T19:32:53.784Z,99.90
2023-01-01T19:36:55.412Z,99.90
2023-01-01T19:40:57.035Z,99.90
2023-01-01T19:45:00.748Z,99.90
2023-01-01T19:49:02.377Z,99.90
2023-01-01T19:53:03.954Z,99.90
2023-01-01T19:57:05.568Z,99.90
2023-01-01T20:01:07.274Z,99.90
2023-01-01T20:05:09.069Z,99.90
2023-01-01T20:09:10.687Z,99.90
2023-01-01T20:13:12.236Z,99.90
2023-01-01T20:17:14.686Z,99.90
2023-01-01T20:21:34.971Z,99.90
2023-01-01T20:25:36.500Z,99.90
2023-01-01T20:29:38.472Z,99.90
2023-01-01T20:33:40.087Z,99.90
2023-01-01T20:37:41.609Z,99.90
2023-01-01T20:41:43.206Z,99.90
2023-01-01T20:45:44.800Z,99.90
2023-01-01T20:49:46.508Z,99.90
2023-01-01T20:53:49.357Z,99.90
2023-01-01T20:57:50.983Z,99.90
2023-01-01T21:01:52.791Z,99.90
2023-01-01T21:05:54.594Z,99.90
2023-01-01T21:09:56.248Z,99.90
2023-01-01T21:13:59.081Z,99.90
2023-01-01T21:18:02.821Z,99.90
2023-01-01T21:22:06.897Z,99.90
2023-01-01T21:26:21.050Z,99.90
2023-01-01T21:30:22.648Z,99.90
2023-01-01T21:34:41.355Z,99.90
2023-01-01T21:38:43.301Z,99.90
2023-01-01T21:42:44.857Z,99.90
2023-01-01T21:46:55.548Z,99.90
2023-01-01T21:51:01.994Z,99.90
2023-01-01T21:55:08.563Z,99.90
2023-01-01T21:59:27.512Z,99.90
2023-01-01T22:03:29.263Z,99.90
2023-01-01T22:12:18.326Z,99.90
2023-01-01T22:16:30.526Z,99.90
2023-01-01T22:20:33.526Z,99.90
2023-01-01T22:24:35.620Z,99.90
2023-01-01T22:28:40.721Z,99.90
2023-01-01T22:32:42.308Z,99.90
2023-01-01T22:36:43.896Z,99.90
2023-01-01T22:40:49.353Z,99.90
2023-01-01T22:44:57.764Z,99.90
2023-01-01T22:49:14.594Z,99.90
2023-01-01T22:53:16.143Z,99.90
2023-01-01T22:57:17.805Z,99.90
2023-01-01T23:01:24.908Z,99.90
2023-01-01T23:05:26.654Z,99.90
2023-01-01T23:09:28.252Z,99.90
2023-01-01T23:13:48.672Z,99.90
2023-01-01T23:17:50.217Z,99.90
2023-01-01T23:21:52.568Z,99.90
2023-01-01T23:25:54.417Z,99.90
2023-01-01T23:29:56.220Z,99.90
2023-01-01T23:33:58.341Z,99.90
2023-01-01T23:38:01.904Z,99.90
2023-01-01T23:42:03.515Z,99.90
2023-01-01T23:46:05.126Z,99.90
2023-01-01T23:50:07.008Z,99.90
2023-01-01T23:54:08.550Z,99.90
2023-01-01T23:58:10.125Z,99.90
